Etusivu
METAR-TAF:

METAR-TAF

Lentoasemat :

Warsaw Municipal Airport

Warsaw, Indiana, Yhdysvallat

Leveyspiiri: 41-16-28N, Pituuspiiri: 085-50-24W, korkeus merenpinnasta: 259 m

Tämänhetkinen sää

Tämä raportti tehtiin 21 minuuttia sitten, kello 12.55 UTC
Tuuli 4 kn etelästä
Lämpötila 7°C
Kosteus 93%
Ilmanpaine 1022 hPa
Näkyvyys: 4.8 km
Hajanaisia pilviä 4100 ft:n korkeudessa
Hajonneita pilviä 5000 ft:n korkeudessa
Pilvistä 8000 ft:n korkeudessa
kovaa sadetta

METAR: KASW 211255Z AUTO 19004KT 3SM +RA SCT041 BKN050 OVC080 07/06 A3018 RMK AO2 P0015

Aika: 09:16 (13:16 UTC)


TAF: puuttuu

Säähavainnot ja -ennusteet yli 4000 lentoasemalta (METAR- ja TAF-raportit).

Käytössä olevat sääasemat on merkitty karttaan keltaisilla ja punaisilla pisteillä.

Aseta hiiri pisteen päälle nähdäksesi sääaseman nimen.

Klikkaa sitten nähdäksesi säähavainnot ja -ennusteet.

Kartan vaihtaminen: klikkaa mustalla rastilla varustettuja vihreitä pisteitä, niin voit zoomata sisään; viivalla varustettua vihreää pistettä, niin voit zoomata ulos tai vihreitä nuolia, niin pääset viereisille kartoille.


METAR-TAF: